createdAt,value
2023-02-03T00:00:56.570Z,2.60
2023-02-03T00:03:23.210Z,2.37
2023-02-03T00:05:49.708Z,2.30
2023-02-03T00:08:18.267Z,2.27
2023-02-03T00:10:45.588Z,2.63
2023-02-03T00:13:12.108Z,2.50
2023-02-03T00:15:38.551Z,2.60
2023-02-03T00:18:05.630Z,2.47
2023-02-03T00:20:32.419Z,2.70
2023-02-03T00:23:04.595Z,2.30
2023-02-03T00:25:30.973Z,2.40
2023-02-03T00:27:57.491Z,2.20
2023-02-03T00:30:24.335Z,2.43
2023-02-03T00:32:50.889Z,2.10
2023-02-03T00:35:18.047Z,2.43
2023-02-03T00:37:44.469Z,2.30
2023-02-03T00:40:12.469Z,2.50
2023-02-03T00:42:39.127Z,1.97
2023-02-03T00:45:06.248Z,2.00
2023-02-03T00:47:32.614Z,2.50
2023-02-03T00:49:59.006Z,2.30
2023-02-03T00:52:26.026Z,1.80
2023-02-03T00:54:52.405Z,2.43
2023-02-03T00:57:18.783Z,2.13
2023-02-03T00:59:45.159Z,1.97
2023-02-03T01:02:11.654Z,2.33
2023-02-03T01:04:38.063Z,2.20
2023-02-03T01:07:04.459Z,2.40
2023-02-03T01:09:34.149Z,2.30
2023-02-03T01:12:00.559Z,2.20
2023-02-03T01:14:26.978Z,2.27
2023-02-03T01:16:53.391Z,2.57
2023-02-03T01:19:19.814Z,2.30
2023-02-03T01:21:46.234Z,2.10
2023-02-03T01:24:14.385Z,2.27
2023-02-03T01:26:41.547Z,2.07
2023-02-03T01:29:08.594Z,2.20
2023-02-03T01:31:38.809Z,2.13
2023-02-03T01:34:08.159Z,2.30
2023-02-03T01:36:35.319Z,2.00
2023-02-03T01:39:03.501Z,2.10
2023-02-03T01:41:32.873Z,2.27
2023-02-03T01:44:01.613Z,2.10
2023-02-03T01:46:31.118Z,2.20
2023-02-03T01:49:05.821Z,2.10
2023-02-03T01:51:32.453Z,2.23
2023-02-03T01:53:59.758Z,2.50
2023-02-03T01:56:29.899Z,2.10
2023-02-03T01:58:59.530Z,2.37
2023-02-03T02:01:29.714Z,1.80
2023-02-03T02:03:59.333Z,1.97
2023-02-03T02:06:25.777Z,2.13
2023-02-03T02:08:53.516Z,2.20
2023-02-03T02:11:21.119Z,1.97
2023-02-03T02:13:50.032Z,2.17
2023-02-03T02:16:20.528Z,2.20
2023-02-03T02:19:01.169Z,2.20
2023-02-03T02:21:58.446Z,2.20
2023-02-03T02:24:58.994Z,2.00
2023-02-03T02:27:51.299Z,1.80
2023-02-03T02:31:02.433Z,2.10
2023-02-03T02:33:41.337Z,2.10
2023-02-03T02:36:18.499Z,2.20
2023-02-03T02:38:52.494Z,2.17
2023-02-03T02:41:26.023Z,1.80
2023-02-03T02:44:00.725Z,2.60
2023-02-03T02:46:33.761Z,2.03
2023-02-03T02:49:07.293Z,2.07
2023-02-03T02:51:36.422Z,2.13
2023-02-03T02:54:06.421Z,2.00
2023-02-03T02:56:36.410Z,1.90
2023-02-03T02:59:04.214Z,1.57
2023-02-03T03:01:30.891Z,2.17
2023-02-03T03:04:00.044Z,1.93
2023-02-03T03:06:32.114Z,2.33
2023-02-03T03:09:03.155Z,1.90
2023-02-03T03:11:33.587Z,1.90
2023-02-03T03:14:01.729Z,1.87
2023-02-03T03:16:33.267Z,1.80
2023-02-03T03:19:03.110Z,2.10
2023-02-03T03:21:34.541Z,1.70
2023-02-03T03:24:05.386Z,2.10
2023-02-03T03:26:39.345Z,1.87
2023-02-03T03:29:11.512Z,1.70
2023-02-03T03:31:39.423Z,2.00
2023-02-03T03:34:06.140Z,2.03
2023-02-03T03:36:40.744Z,1.50
2023-02-03T03:39:13.188Z,1.47
2023-02-03T03:41:46.654Z,1.60
2023-02-03T03:44:16.574Z,1.90
2023-02-03T03:46:49.488Z,1.60
2023-02-03T03:49:17.722Z,1.70
2023-02-03T03:51:51.131Z,1.93
2023-02-03T03:54:21.644Z,3.07
2023-02-03T03:56:56.708Z,1.90
2023-02-03T03:59:25.343Z,3.50
2023-02-03T04:01:52.657Z,1.70
2023-02-03T04:04:20.718Z,1.93
2023-02-03T04:06:47.735Z,2.37
2023-02-03T04:09:14.123Z,1.50
2023-02-03T04:11:58.556Z,1.60
2023-02-03T04:14:25.037Z,1.60
2023-02-03T04:16:51.428Z,1.80
2023-02-03T04:19:17.793Z,1.87
2023-02-03T04:21:44.298Z,1.70
2023-02-03T04:24:12.348Z,1.70
2023-02-03T04:26:39.101Z,1.70
2023-02-03T04:29:05.951Z,1.80
2023-02-03T04:31:32.409Z,1.70
2023-02-03T04:33:58.915Z,1.90
2023-02-03T04:36:25.320Z,1.50
2023-02-03T04:38:51.954Z,1.97
2023-02-03T04:41:19.004Z,2.30
2023-02-03T04:43:45.365Z,1.70
2023-02-03T04:46:11.845Z,1.90
2023-02-03T04:48:38.268Z,1.57
2023-02-03T04:51:07.025Z,2.00
2023-02-03T04:53:34.443Z,2.00
2023-02-03T04:56:01.075Z,1.60
2023-02-03T04:58:28.097Z,3.67
2023-02-03T05:00:54.925Z,1.97
2023-02-03T05:03:24.066Z,2.27
2023-02-03T05:05:51.417Z,2.07
2023-02-03T05:08:17.757Z,2.10
2023-02-03T05:10:44.103Z,2.00
2023-02-03T05:13:11.288Z,1.30
2023-02-03T05:15:38.282Z,1.87
2023-02-03T05:18:04.759Z,2.20
2023-02-03T05:20:31.185Z,1.60
2023-02-03T05:22:58.069Z,2.00
2023-02-03T05:25:24.515Z,1.63
2023-02-03T05:27:50.954Z,1.90
2023-02-03T05:30:17.761Z,2.03
2023-02-03T05:32:44.795Z,1.90
2023-02-03T05:35:11.144Z,1.50
2023-02-03T05:37:37.513Z,1.70
2023-02-03T05:40:22.910Z,2.17
2023-02-03T05:42:49.735Z,2.07
2023-02-03T05:45:16.895Z,1.97
2023-02-03T05:47:43.944Z,1.97
2023-02-03T05:50:10.437Z,1.60
2023-02-03T05:52:36.820Z,1.90
2023-02-03T05:55:03.855Z,1.97
2023-02-03T05:57:32.295Z,1.80
2023-02-03T05:59:59.016Z,1.40
2023-02-03T06:02:25.480Z,1.57
2023-02-03T06:04:52.551Z,2.07
2023-02-03T06:07:18.929Z,1.80
2023-02-03T06:09:45.298Z,1.57
2023-02-03T06:12:11.693Z,1.93
2023-02-03T06:14:38.042Z,1.60
2023-02-03T06:17:04.460Z,1.73
2023-02-03T06:19:30.828Z,1.67
2023-02-03T06:21:57.948Z,1.87
2023-02-03T06:24:24.365Z,2.00
2023-02-03T06:26:50.715Z,2.00
2023-02-03T06:29:17.186Z,1.90
2023-02-03T06:31:43.760Z,2.07
2023-02-03T06:34:10.412Z,1.90
2023-02-03T06:36:36.785Z,2.00
2023-02-03T06:39:04.006Z,1.80
2023-02-03T06:41:30.726Z,1.80
2023-02-03T06:43:57.314Z,2.00
2023-02-03T06:46:27.495Z,2.10
2023-02-03T06:48:53.893Z,1.80
2023-02-03T06:51:20.281Z,2.00
2023-02-03T06:53:46.657Z,1.87
2023-02-03T06:56:13.749Z,1.80
2023-02-03T06:58:40.125Z,1.70
2023-02-03T07:01:06.553Z,1.87
2023-02-03T07:03:32.930Z,1.60
2023-02-03T07:06:00.669Z,1.70
2023-02-03T07:08:27.027Z,1.70
2023-02-03T07:10:54.128Z,1.40
2023-02-03T07:13:21.212Z,1.70
2023-02-03T07:15:47.650Z,1.70
2023-02-03T07:18:17.970Z,1.70
2023-02-03T07:20:47.812Z,1.50
2023-02-03T07:23:14.242Z,1.40
2023-02-03T07:25:40.638Z,1.90
2023-02-03T07:28:07.017Z,2.00
2023-02-03T07:30:34.168Z,1.87
2023-02-03T07:33:00.719Z,1.60
2023-02-03T07:35:27.335Z,1.47
2023-02-03T07:37:53.844Z,1.90
2023-02-03T07:40:20.531Z,2.07
2023-02-03T07:42:48.735Z,1.60
2023-02-03T07:45:16.805Z,1.90
2023-02-03T07:47:44.135Z,1.33
2023-02-03T07:50:11.350Z,1.50
2023-02-03T07:52:38.087Z,1.70
2023-02-03T07:55:05.046Z,1.43
2023-02-03T07:57:31.458Z,1.60
2023-02-03T07:59:57.833Z,1.47
2023-02-03T08:02:24.261Z,1.50
2023-02-03T08:04:51.352Z,2.00
2023-02-03T08:07:17.763Z,1.50
2023-02-03T08:09:44.123Z,1.40
2023-02-03T08:12:10.515Z,1.23
2023-02-03T08:14:36.918Z,1.50
2023-02-03T08:17:03.288Z,1.53
2023-02-03T08:19:29.720Z,1.40
2023-02-03T08:21:58.397Z,1.37
2023-02-03T08:24:24.849Z,1.30
2023-02-03T08:26:52.175Z,1.30
2023-02-03T08:29:18.645Z,1.33
2023-02-03T08:31:45.170Z,1.00
2023-02-03T08:34:11.639Z,1.50
2023-02-03T08:36:39.322Z,1.67
2023-02-03T08:39:06.592Z,1.40
2023-02-03T08:41:33.587Z,1.40
2023-02-03T08:44:00.096Z,1.47
2023-02-03T08:46:26.761Z,1.60
2023-02-03T08:48:55.664Z,1.57
2023-02-03T08:51:22.109Z,1.50
2023-02-03T08:53:48.600Z,1.40
2023-02-03T08:56:15.653Z,1.33
2023-02-03T08:58:42.044Z,1.70
2023-02-03T09:01:10.310Z,1.80
2023-02-03T09:03:37.225Z,1.27
2023-02-03T09:06:04.602Z,1.30
2023-02-03T09:08:31.238Z,1.50
2023-02-03T09:10:57.646Z,1.40
2023-02-03T09:13:24.693Z,1.50
2023-02-03T09:15:51.154Z,1.30
2023-02-03T09:18:17.565Z,1.53
2023-02-03T09:20:43.982Z,1.60
2023-02-03T09:23:10.553Z,1.17
2023-02-03T09:25:36.919Z,1.03
2023-02-03T09:28:03.799Z,1.60
2023-02-03T09:30:31.347Z,1.30
2023-02-03T09:32:58.232Z,1.47
2023-02-03T09:35:26.145Z,1.70
2023-02-03T09:37:52.672Z,1.30
2023-02-03T09:40:24.081Z,1.50
2023-02-03T09:42:59.827Z,1.17
2023-02-03T09:45:27.970Z,1.00
2023-02-03T09:47:59.529Z,1.50
2023-02-03T09:50:29.807Z,1.50
2023-02-03T09:52:58.376Z,1.47
2023-02-03T09:55:29.806Z,1.40
2023-02-03T09:58:03.136Z,1.20
2023-02-03T10:00:37.067Z,1.47
2023-02-03T10:03:08.305Z,1.33
2023-02-03T10:05:56.802Z,1.37
2023-02-03T10:08:36.233Z,1.10
2023-02-03T10:11:14.720Z,1.23
2023-02-03T10:13:53.076Z,1.30
2023-02-03T10:16:38.247Z,1.30
2023-02-03T10:19:11.114Z,1.37
2023-02-03T10:21:41.719Z,1.50
2023-02-03T10:24:12.841Z,1.73
2023-02-03T10:26:39.840Z,1.40
2023-02-03T10:29:17.866Z,1.50
2023-02-03T10:31:46.019Z,1.60
2023-02-03T10:34:14.719Z,1.30
2023-02-03T10:36:53.600Z,1.20
2023-02-03T10:39:29.447Z,1.27
2023-02-03T10:41:56.151Z,1.50
2023-02-03T10:44:28.951Z,1.60
2023-02-03T10:46:55.330Z,1.17
2023-02-03T10:49:25.683Z,1.20
2023-02-03T10:51:56.301Z,1.73
2023-02-03T10:54:29.291Z,1.30
2023-02-03T10:57:01.780Z,1.70
2023-02-03T10:59:30.639Z,1.50
2023-02-03T11:01:57.349Z,1.50
2023-02-03T11:04:26.349Z,1.67
2023-02-03T11:06:55.679Z,1.47
2023-02-03T11:09:28.340Z,1.40
2023-02-03T11:12:06.332Z,1.57
2023-02-03T11:14:37.036Z,1.37
2023-02-03T11:17:08.349Z,1.30
2023-02-03T11:19:38.210Z,1.30
2023-02-03T11:22:05.925Z,1.20
2023-02-03T11:24:36.798Z,1.37
2023-02-03T11:27:06.499Z,1.53
2023-02-03T11:29:35.095Z,1.30
2023-02-03T11:32:06.252Z,1.30
2023-02-03T11:34:37.183Z,1.23
2023-02-03T11:37:26.224Z,1.63
2023-02-03T11:39:55.664Z,1.33
2023-02-03T11:42:23.284Z,1.90
2023-02-03T11:44:50.387Z,1.30
2023-02-03T11:47:18.039Z,1.43
2023-02-03T11:50:19.036Z,1.10
2023-02-03T11:53:01.773Z,1.40
2023-02-03T11:55:38.695Z,1.03
2023-02-03T11:58:22.646Z,1.20
2023-02-03T12:00:59.033Z,1.30
2023-02-03T12:03:51.956Z,1.30
2023-02-03T12:06:40.450Z,1.37
2023-02-03T12:09:20.987Z,1.30
2023-02-03T12:12:06.438Z,1.10
2023-02-03T12:14:47.358Z,1.43
2023-02-03T12:17:37.982Z,1.27
2023-02-03T12:20:23.892Z,1.20
2023-02-03T12:23:00.255Z,1.43
2023-02-03T12:25:36.692Z,1.40
2023-02-03T12:28:27.434Z,1.40
2023-02-03T12:31:03.999Z,1.13
2023-02-03T12:33:35.706Z,1.23
2023-02-03T12:36:09.033Z,1.30
2023-02-03T12:38:40.735Z,1.10
2023-02-03T12:41:12.447Z,1.07
2023-02-03T12:43:42.239Z,1.27
2023-02-03T12:46:14.562Z,1.07
2023-02-03T12:48:49.738Z,1.47
2023-02-03T12:51:25.787Z,1.17
2023-02-03T12:54:01.440Z,1.20
2023-02-03T12:56:35.969Z,1.20
2023-02-03T12:59:06.230Z,1.10
2023-02-03T13:01:36.418Z,1.43
2023-02-03T13:04:08.344Z,1.20
2023-02-03T13:06:41.039Z,1.27
2023-02-03T13:09:24.312Z,1.03
2023-02-03T13:11:58.567Z,1.30
2023-02-03T13:14:31.407Z,1.33
2023-02-03T13:17:04.218Z,1.30
2023-02-03T13:19:40.730Z,1.10
2023-02-03T13:22:12.002Z,0.93
2023-02-03T13:24:43.016Z,1.37
2023-02-03T13:27:39.910Z,1.13
2023-02-03T13:30:41.992Z,1.40
2023-02-03T13:33:53.046Z,1.40
2023-02-03T13:36:47.042Z,1.33
2023-02-03T13:39:35.607Z,1.27
2023-02-03T13:42:19.228Z,1.30
2023-02-03T13:44:50.817Z,1.60
2023-02-03T13:47:22.294Z,1.20
2023-02-03T13:49:54.975Z,1.17
2023-02-03T13:52:35.326Z,1.23
2023-02-03T13:55:03.039Z,1.20
2023-02-03T13:57:34.140Z,1.40
2023-02-03T14:00:02.414Z,1.30
2023-02-03T14:02:45.095Z,1.27
2023-02-03T14:05:41.489Z,1.10
2023-02-03T14:08:51.763Z,1.30
2023-02-03T14:11:40.716Z,1.27
2023-02-03T14:14:57.430Z,1.20
2023-02-03T14:18:02.493Z,1.33
2023-02-03T14:21:12.938Z,1.73
2023-02-03T14:23:47.922Z,1.30
2023-02-03T14:26:20.452Z,1.43
2023-02-03T14:28:48.681Z,1.20
2023-02-03T14:31:19.741Z,1.10
2023-02-03T14:34:07.182Z,1.50
2023-02-03T14:36:40.052Z,1.40
2023-02-03T14:39:39.848Z,1.10
2023-02-03T14:42:17.012Z,1.37
2023-02-03T14:44:55.743Z,1.60
2023-02-03T14:47:36.812Z,1.30
2023-02-03T14:50:21.232Z,1.60
2023-02-03T14:53:01.360Z,1.60
2023-02-03T14:55:41.105Z,1.40
2023-02-03T14:58:19.287Z,1.30
2023-02-03T15:00:45.741Z,1.53
2023-02-03T15:03:24.860Z,1.90
2023-02-03T15:05:53.735Z,1.70
2023-02-03T15:08:42.288Z,1.30
2023-02-03T15:11:22.683Z,1.63
2023-02-03T15:13:49.120Z,1.50
2023-02-03T15:16:19.540Z,1.50
2023-02-03T15:18:53.656Z,1.50
2023-02-03T15:21:20.645Z,1.60
2023-02-03T15:23:48.594Z,1.30
2023-02-03T15:26:17.805Z,1.50
2023-02-03T15:28:53.016Z,1.13
2023-02-03T15:31:24.823Z,1.40
2023-02-03T15:33:54.218Z,1.53
2023-02-03T15:36:25.307Z,1.20
2023-02-03T15:38:57.081Z,1.30
2023-02-03T15:41:25.513Z,1.10
2023-02-03T15:43:56.082Z,1.20
2023-02-03T15:46:28.376Z,1.60
2023-02-03T15:49:02.816Z,1.50
2023-02-03T15:51:34.083Z,1.40
2023-02-03T15:54:08.212Z,1.53
2023-02-03T15:56:40.485Z,1.10
2023-02-03T15:59:20.570Z,1.63
2023-02-03T16:01:47.316Z,1.70
2023-02-03T16:04:15.072Z,1.77
2023-02-03T16:06:46.130Z,2.00
2023-02-03T16:09:28.160Z,1.60
2023-02-03T16:12:14.064Z,1.47
2023-02-03T16:14:41.702Z,1.37
2023-02-03T16:17:25.004Z,1.33
2023-02-03T16:20:12.485Z,1.57
2023-02-03T16:22:40.992Z,1.63
2023-02-03T16:25:14.834Z,1.40
2023-02-03T16:27:44.519Z,1.47
2023-02-03T16:30:42.988Z,1.47
2023-02-03T16:33:33.500Z,1.30
2023-02-03T16:36:28.836Z,1.53
2023-02-03T16:39:13.644Z,1.33
2023-02-03T16:41:58.134Z,1.80
2023-02-03T16:44:42.550Z,1.10
2023-02-03T16:47:41.010Z,1.80
2023-02-03T16:50:38.325Z,1.57
2023-02-03T16:53:10.800Z,1.30
2023-02-03T16:55:37.225Z,1.57
2023-02-03T16:58:03.569Z,1.33
2023-02-03T17:00:30.043Z,1.50
2023-02-03T17:02:58.580Z,1.40
2023-02-03T17:05:25.186Z,1.67
2023-02-03T17:07:51.552Z,1.30
2023-02-03T17:10:18.719Z,1.53
2023-02-03T17:12:45.137Z,1.60
2023-02-03T17:15:11.540Z,1.30
2023-02-03T17:17:37.969Z,1.40
2023-02-03T17:20:05.345Z,1.60
2023-02-03T17:22:32.792Z,1.43
2023-02-03T17:24:59.287Z,1.37
2023-02-03T17:27:26.350Z,1.10
2023-02-03T17:29:52.907Z,1.70
2023-02-03T17:32:19.333Z,1.70
2023-02-03T17:34:45.797Z,1.50
2023-02-03T17:37:12.225Z,1.40
2023-02-03T17:53:23.608Z,1.23
2023-02-03T17:55:49.985Z,1.27
2023-02-03T17:58:16.455Z,1.20
2023-02-03T18:00:43.486Z,1.50
2023-02-03T18:03:09.852Z,1.20
2023-02-03T18:05:37.567Z,1.30
2023-02-03T18:08:12.330Z,1.30
2023-02-03T18:10:43.351Z,1.13
2023-02-03T18:13:09.842Z,1.60
2023-02-03T18:15:37.822Z,1.70
2023-02-03T18:18:05.173Z,1.07
2023-02-03T18:20:31.700Z,1.60
2023-02-03T18:22:58.137Z,1.57
2023-02-03T18:25:24.487Z,1.60
2023-02-03T18:27:50.925Z,1.40
2023-02-03T18:30:19.433Z,1.40
2023-02-03T18:32:50.077Z,1.53
2023-02-03T18:35:18.015Z,1.53
2023-02-03T18:37:44.505Z,1.40
2023-02-03T18:40:12.103Z,1.30
2023-02-03T18:42:38.537Z,1.50
2023-02-03T18:45:05.685Z,1.10
2023-02-03T18:47:32.602Z,1.60
2023-02-03T18:49:59.092Z,1.53
2023-02-03T18:52:26.664Z,1.60
2023-02-03T18:54:53.053Z,1.50
2023-02-03T18:57:21.758Z,1.40
2023-02-03T18:59:48.298Z,1.17
2023-02-03T19:02:14.787Z,1.80
2023-02-03T19:04:41.205Z,1.67
2023-02-03T19:07:07.645Z,1.40
2023-02-03T19:09:34.885Z,1.27
2023-02-03T19:12:02.315Z,1.77
2023-02-03T19:14:29.032Z,1.40
2023-02-03T19:16:55.412Z,0.97
2023-02-03T19:19:22.025Z,1.30
2023-02-03T19:21:48.620Z,1.70
2023-02-03T19:24:15.505Z,1.50
2023-02-03T19:26:42.724Z,1.83
2023-02-03T19:29:09.154Z,1.43
2023-02-03T19:31:35.935Z,1.50
2023-02-03T19:34:02.405Z,1.40
2023-02-03T19:36:30.371Z,1.70
2023-02-03T19:38:57.315Z,1.70
2023-02-03T19:41:25.235Z,1.90
2023-02-03T19:43:52.466Z,1.60
2023-02-03T19:46:20.912Z,1.57
2023-02-03T19:48:47.970Z,1.80
2023-02-03T19:51:14.510Z,1.73
2023-02-03T19:53:40.974Z,1.67
2023-02-03T19:56:07.580Z,1.57
2023-02-03T19:58:34.041Z,1.60
2023-02-03T20:01:01.377Z,1.80
2023-02-03T20:03:27.907Z,1.50
2023-02-03T20:05:54.327Z,1.40
2023-02-03T20:08:20.782Z,1.60
2023-02-03T20:10:47.173Z,1.90
2023-02-03T20:13:14.040Z,1.73
2023-02-03T20:15:41.014Z,1.80
2023-02-03T20:18:09.063Z,2.30
2023-02-03T20:20:35.906Z,1.97
2023-02-03T20:23:02.373Z,1.67
2023-02-03T20:25:28.949Z,1.70
2023-02-03T20:27:56.381Z,1.43
2023-02-03T20:30:22.985Z,1.83
2023-02-03T20:32:49.384Z,2.00
2023-02-03T20:35:17.362Z,1.70
2023-02-03T20:37:43.785Z,2.10
2023-02-03T20:40:14.934Z,2.03
2023-02-03T20:42:41.576Z,2.10
2023-02-03T20:45:12.957Z,1.90
2023-02-03T20:47:39.416Z,2.00
2023-02-03T20:50:09.916Z,1.93
2023-02-03T20:52:36.993Z,1.80
2023-02-03T20:55:11.457Z,2.30
2023-02-03T20:57:37.866Z,2.00
2023-02-03T21:00:14.014Z,1.90
2023-02-03T21:02:55.205Z,1.87
2023-02-03T21:05:25.238Z,1.60
2023-02-03T21:07:52.327Z,2.07
2023-02-03T21:10:20.959Z,1.83
2023-02-03T21:12:47.762Z,1.87
2023-02-03T21:15:18.753Z,1.93
2023-02-03T21:17:45.144Z,2.00
2023-02-03T21:20:23.577Z,1.60
2023-02-03T21:22:49.991Z,1.87
2023-02-03T21:25:28.504Z,1.67
2023-02-03T21:27:57.355Z,2.07
2023-02-03T21:30:30.190Z,1.50
2023-02-03T21:32:57.639Z,1.50
2023-02-03T21:35:28.341Z,1.73
2023-02-03T21:38:01.034Z,1.97
2023-02-03T21:40:30.364Z,1.70
2023-02-03T21:42:57.483Z,2.00
2023-02-03T21:45:34.763Z,2.00
2023-02-03T21:48:02.569Z,2.00
2023-02-03T21:50:31.667Z,1.67
2023-02-03T21:53:15.785Z,1.63
2023-02-03T21:55:43.063Z,1.47
2023-02-03T21:58:21.070Z,1.53
2023-02-03T22:00:48.355Z,1.53
2023-02-03T22:03:19.494Z,1.17
2023-02-03T22:05:46.890Z,1.77
2023-02-03T22:08:23.389Z,1.47
2023-02-03T22:10:50.415Z,1.53
2023-02-03T22:13:16.881Z,1.80
2023-02-03T22:15:45.587Z,2.10
2023-02-03T22:18:11.970Z,1.80
2023-02-03T22:20:38.340Z,1.90
2023-02-03T22:23:05.174Z,2.13
2023-02-03T22:25:31.570Z,1.97
2023-02-03T22:27:58.696Z,1.90
2023-02-03T22:30:25.112Z,1.83
2023-02-03T22:32:51.504Z,1.83
2023-02-03T22:35:17.956Z,1.70
2023-02-03T22:37:44.337Z,1.70
2023-02-03T22:40:11.473Z,1.40
2023-02-03T22:42:37.831Z,1.97
2023-02-03T22:45:06.422Z,1.80
2023-02-03T22:47:33.012Z,1.87
2023-02-03T22:49:59.394Z,1.73
2023-02-03T22:52:25.845Z,1.40
2023-02-03T22:54:52.240Z,1.43
2023-02-03T22:57:18.604Z,1.60
2023-02-03T22:59:44.968Z,1.70
2023-02-03T23:02:11.978Z,1.60
2023-02-03T23:04:38.374Z,1.83
2023-02-03T23:07:04.813Z,1.70
2023-02-03T23:09:31.205Z,1.60
2023-02-03T23:11:57.649Z,1.90
2023-02-03T23:14:24.033Z,1.97
2023-02-03T23:16:50.508Z,1.90
2023-02-03T23:19:17.576Z,1.90
2023-02-03T23:21:43.986Z,1.83
2023-02-03T23:24:10.383Z,2.10
2023-02-03T23:26:37.000Z,2.00
2023-02-03T23:29:03.473Z,2.20
2023-02-03T23:31:30.131Z,1.80
2023-02-03T23:34:23.342Z,1.80
2023-02-03T23:36:50.404Z,2.10
2023-02-03T23:39:16.788Z,2.17
2023-02-03T23:41:43.154Z,1.90
2023-02-03T23:44:10.228Z,2.20
2023-02-03T23:46:36.679Z,2.27
2023-02-03T23:49:03.112Z,2.40
2023-02-03T23:51:29.516Z,2.30
2023-02-03T23:53:56.532Z,1.97
2023-02-03T23:56:22.940Z,1.90
2023-02-03T23:58:49.331Z,1.70
